Whittier, California
Current Conditions -  °F | °C
As of 4:53 AM on Saturday 25 Oct 2014 (Local Time) from KFUL Reporting Station
Overcast Overcast  
Wind Chill: 64°   Ceiling: 10000
Heat Index: 64°   Visibility: 10mi
Dew Point: 54°   Wind: 0mph
Humidity: 70%   Direction: NA
Pressure: 29.97"   Gusts: NA
Location:  33.98°N, 118.03°W
Report Text: KFUL 251153Z 00000KT 10SM OVC100 18/12 A2997 RMK AO2 SLP147 T01780122 10194 20167 56014 $
Loading
Personal Weather Stations






























Interactive Weather Map
Tropical Storm Tracking
New forecast layout! Learn more

10-Day Weather Forecast

Advertisements
Track Severe Weather on mobile